createdAt,value
2022-08-01T08:26:55.710Z,23.47
2022-08-01T08:43:40.586Z,23.54
2022-08-01T08:44:43.685Z,23.51
2022-08-01T08:45:58.795Z,23.69
2022-08-01T09:18:23.859Z,23.95
2022-08-01T09:19:39.003Z,23.87
2022-08-01T09:20:23.817Z,23.95
2022-08-01T09:21:23.981Z,24.13
2022-08-01T09:22:23.871Z,24.31
2022-08-01T09:23:23.781Z,24.61
2022-08-01T09:24:28.422Z,24.80
2022-08-01T09:25:29.577Z,24.99
2022-08-01T09:26:23.740Z,24.91
2022-08-01T09:27:23.717Z,24.93
2022-08-01T09:28:23.736Z,24.78
2022-08-01T09:29:37.188Z,24.95
2022-08-01T09:30:26.150Z,25.09
2022-08-01T09:31:38.032Z,24.88
2022-08-01T09:32:26.008Z,24.81
2022-08-01T09:33:23.644Z,24.83
2022-08-01T09:34:23.641Z,24.81
2022-08-01T09:35:23.615Z,24.84
2022-08-01T09:36:23.609Z,24.87
2022-08-01T09:37:24.239Z,24.60
2022-08-01T09:38:23.582Z,24.62
2022-08-01T09:39:23.577Z,24.65
2022-08-01T09:40:23.547Z,24.83
2022-08-01T09:41:24.527Z,24.90
2022-08-01T09:42:28.771Z,25.00
2022-08-01T09:43:23.508Z,24.68
2022-08-01T09:44:39.942Z,24.47
2022-08-01T09:45:23.491Z,24.42
2022-08-01T09:46:23.468Z,24.55
2022-08-01T09:47:23.973Z,24.80
2022-08-01T09:48:28.376Z,25.05
2022-08-01T09:49:23.472Z,25.25
2022-08-01T09:50:23.468Z,25.13
2022-08-01T09:52:00.035Z,24.88
2022-08-01T09:52:26.015Z,24.87
2022-08-01T09:53:29.951Z,25.08
2022-08-01T09:54:23.393Z,24.96
2022-08-01T09:55:23.365Z,24.99
2022-08-01T09:56:23.435Z,25.30
2022-08-01T09:57:23.342Z,25.51
2022-08-01T09:58:23.375Z,25.72
2022-08-01T09:59:26.406Z,25.80
2022-08-01T10:00:44.426Z,25.73
2022-08-01T10:01:23.298Z,25.67
2022-08-01T10:02:23.270Z,25.79
2022-08-01T10:03:23.913Z,25.94
2022-08-01T10:04:23.261Z,25.98
2022-08-01T10:25:14.960Z,25.38
2022-08-01T10:26:14.933Z,25.64
2022-08-01T10:27:15.044Z,26.05
2022-08-01T10:28:14.907Z,26.13
2022-08-01T10:29:45.340Z,26.52
2022-08-01T10:30:19.951Z,26.55
2022-08-01T10:31:14.873Z,26.80
2022-08-01T10:32:14.872Z,26.85
2022-08-01T10:33:15.303Z,26.88
2022-08-01T10:34:14.835Z,26.88
2022-08-01T10:35:15.394Z,26.30
2022-08-01T10:36:14.820Z,25.80
2022-08-01T10:37:14.810Z,25.54
2022-08-01T10:38:24.126Z,25.65
2022-08-01T10:39:14.785Z,26.10
2022-08-01T10:40:29.896Z,26.13
2022-08-01T10:41:14.770Z,26.18
2022-08-01T10:42:15.855Z,26.21
2022-08-01T10:43:14.749Z,26.30
2022-08-01T10:44:14.716Z,26.07
2022-08-01T10:45:14.780Z,25.94
2022-08-01T10:46:14.703Z,25.87
2022-08-01T10:47:18.187Z,25.82
2022-08-01T10:48:14.687Z,25.40
2022-08-01T10:49:14.742Z,25.14
2022-08-01T10:50:14.970Z,25.43
2022-08-01T10:51:17.838Z,25.92
2022-08-01T10:52:14.623Z,26.30
2022-08-01T10:53:16.210Z,26.35
2022-08-01T10:54:14.613Z,26.40
2022-08-01T10:55:14.600Z,26.28
2022-08-01T10:56:16.725Z,26.17
2022-08-01T10:57:14.575Z,26.18
2022-08-01T10:58:15.764Z,26.36
2022-08-01T10:59:14.553Z,26.66
2022-08-01T11:00:14.542Z,26.65
2022-08-01T11:01:14.558Z,26.54
2022-08-01T11:02:14.502Z,26.57
2022-08-01T11:03:14.535Z,26.62
2022-08-01T11:04:17.088Z,26.58
2022-08-01T11:05:14.621Z,26.45
2022-08-01T11:06:14.459Z,26.60
2022-08-01T11:07:14.448Z,26.84
2022-08-01T11:08:14.444Z,27.03
2022-08-01T11:09:16.579Z,27.12
2022-08-01T11:10:14.822Z,27.19
2022-08-01T11:11:14.412Z,27.17
2022-08-01T11:12:23.507Z,26.95
2022-08-01T11:13:14.378Z,27.09
2022-08-01T11:14:14.404Z,27.36
2022-08-01T11:15:14.367Z,27.47
2022-08-01T11:16:16.835Z,27.29
2022-08-01T11:17:14.335Z,26.88
2022-08-01T11:18:14.328Z,27.14
2022-08-01T11:19:14.309Z,27.66
2022-08-01T11:20:14.497Z,27.87
2022-08-01T11:21:58.692Z,27.85
2022-08-01T11:22:14.279Z,27.97
2022-08-01T11:23:14.266Z,27.75
2022-08-01T11:24:14.262Z,27.57
2022-08-01T11:25:14.245Z,27.29
2022-08-01T11:26:14.254Z,26.62
2022-08-01T11:27:14.223Z,26.37
2022-08-01T11:28:15.303Z,26.44
2022-08-01T11:29:20.550Z,27.07
2022-08-01T11:30:14.186Z,27.54
2022-08-01T11:31:14.517Z,28.00
2022-08-01T11:32:14.168Z,28.22
2022-08-01T11:33:14.363Z,27.96
2022-08-01T11:34:14.143Z,27.63
2022-08-01T11:35:14.144Z,27.02
2022-08-01T11:36:15.263Z,26.82
2022-08-01T11:37:14.365Z,26.44
2022-08-01T11:38:14.108Z,26.52
2022-08-01T11:39:14.263Z,26.47
2022-08-01T11:40:14.074Z,26.28
2022-08-01T11:41:14.083Z,26.37
2022-08-01T11:42:14.059Z,26.73
2022-08-01T11:43:14.045Z,27.00
2022-08-01T11:44:14.042Z,26.58
2022-08-01T11:45:18.089Z,26.62
2022-08-01T11:46:14.033Z,26.58
2022-08-01T11:47:14.108Z,26.28
2022-08-01T11:48:13.987Z,26.37
2022-08-01T11:49:14.026Z,26.18
2022-08-01T11:50:13.964Z,26.54
2022-08-01T11:51:19.611Z,26.36
2022-08-01T11:52:13.950Z,26.32
2022-08-01T11:53:13.941Z,26.63
2022-08-01T11:54:13.917Z,26.75
2022-08-01T11:57:54.442Z,26.66
2022-08-01T11:58:54.422Z,26.44
2022-08-01T12:00:03.507Z,26.36
2022-08-01T12:00:54.404Z,26.37
2022-08-01T12:01:54.450Z,26.43
2022-08-01T12:02:54.437Z,26.88
2022-08-01T12:03:54.348Z,27.50
2022-08-01T12:04:54.354Z,28.00
2022-08-01T12:05:54.357Z,28.64
2022-08-01T12:06:54.315Z,28.33
2022-08-01T12:15:32.308Z,25.79
2022-08-01T12:16:33.135Z,25.90
2022-08-01T12:17:32.320Z,26.02
2022-08-01T12:18:32.256Z,26.02
2022-08-01T12:19:32.245Z,26.12
2022-08-01T12:21:19.150Z,26.21
2022-08-01T12:22:06.233Z,26.45
2022-08-01T12:23:06.217Z,26.55
2022-08-01T12:24:06.216Z,26.51
2022-08-01T12:25:06.203Z,26.39
2022-08-01T12:26:06.257Z,26.40
2022-08-01T12:27:06.330Z,26.10
2022-08-01T12:28:06.167Z,25.79
2022-08-01T12:29:06.156Z,26.05
2022-08-01T12:30:06.130Z,26.18
2022-08-01T12:31:06.142Z,26.09
2022-08-01T12:32:06.110Z,26.07
2022-08-01T12:40:27.393Z,26.12
2022-08-01T12:41:27.380Z,26.20
2022-08-01T12:42:27.368Z,26.25
2022-08-01T12:43:29.518Z,26.45
2022-08-01T12:44:27.344Z,26.72
2022-08-01T12:45:27.343Z,26.82
2022-08-01T12:46:27.319Z,27.09
2022-08-01T12:47:27.305Z,27.25
2022-08-01T12:48:27.295Z,27.51
2022-08-01T12:49:27.340Z,27.85
2022-08-01T12:50:27.271Z,27.84
2022-08-01T12:51:27.262Z,27.78
2022-08-01T12:52:27.374Z,27.78
2022-08-01T12:53:40.644Z,27.88
2022-08-01T12:54:27.229Z,27.87
2022-08-01T12:55:34.855Z,28.02
2022-08-01T12:56:27.219Z,27.75
2022-08-01T12:57:27.181Z,27.81
2022-08-01T12:58:27.182Z,28.00
2022-08-01T12:59:27.157Z,27.74
2022-08-01T13:00:27.145Z,27.25
2022-08-01T13:01:27.210Z,27.46
2022-08-01T13:02:27.144Z,27.44
2022-08-01T13:03:27.124Z,27.04
2022-08-01T13:04:27.102Z,26.69
2022-08-01T13:05:27.652Z,26.51
2022-08-01T13:21:34.431Z,26.44
2022-08-01T13:22:32.334Z,26.48
2022-08-01T13:24:02.993Z,26.37
2022-08-01T13:24:32.341Z,26.62
2022-08-01T13:25:32.308Z,26.94
2022-08-01T13:26:32.296Z,27.28
2022-08-01T13:27:32.283Z,27.60
2022-08-01T13:28:32.284Z,27.49
2022-08-01T13:29:32.260Z,27.63
2022-08-01T13:30:32.253Z,27.37
2022-08-01T13:31:32.270Z,27.88
2022-08-01T13:32:32.506Z,27.75
2022-08-01T13:33:41.539Z,28.11
2022-08-01T13:34:32.197Z,28.54
2022-08-01T13:35:32.177Z,28.52
2022-08-01T13:36:32.188Z,28.59
2022-08-01T14:06:43.804Z,26.37
2022-08-01T14:07:43.773Z,26.66
2022-08-01T14:08:45.976Z,26.92
2022-08-01T14:09:45.082Z,26.66
2022-08-01T14:10:43.730Z,26.80
2022-08-01T14:11:45.944Z,26.80
2022-08-01T14:21:12.799Z,26.62
2022-08-01T14:22:12.778Z,26.89
2022-08-01T14:26:26.450Z,26.63
2022-08-01T14:27:26.482Z,26.72
2022-08-01T14:28:26.421Z,26.72
2022-08-01T14:29:26.398Z,26.80
2022-08-01T14:30:26.387Z,26.57
2022-08-01T14:31:28.728Z,26.70
2022-08-01T14:32:28.772Z,26.80
2022-08-01T14:33:26.346Z,26.77
2022-08-01T14:34:26.332Z,27.09
2022-08-01T14:35:26.321Z,27.57
2022-08-01T14:36:30.595Z,27.43
2022-08-01T14:37:29.320Z,27.21
2022-08-01T14:38:31.333Z,26.91
2022-08-01T14:39:26.272Z,26.87
2022-08-01T14:40:26.271Z,27.09
2022-08-01T14:41:26.252Z,27.10
2022-08-01T14:42:26.257Z,27.07
2022-08-01T14:43:30.728Z,26.88
2022-08-01T14:44:32.865Z,26.94
2022-08-01T14:45:26.214Z,26.82
2022-08-01T14:46:26.208Z,26.92
2022-08-01T14:47:26.197Z,27.03
2022-08-01T14:48:26.190Z,27.04
2022-08-01T14:49:26.228Z,27.18
2022-08-01T14:50:26.159Z,26.92
2022-08-01T14:51:26.159Z,26.87
2022-08-01T14:52:26.144Z,26.84
2022-08-01T14:53:26.142Z,26.63
2022-08-01T14:54:26.874Z,26.52
2022-08-01T14:55:26.109Z,26.58
2022-08-01T14:56:26.093Z,26.72
2022-08-01T14:57:26.105Z,26.91
2022-08-01T14:58:26.069Z,26.70
2022-08-01T14:59:26.052Z,27.10
2022-08-01T15:00:26.133Z,26.95
2022-08-01T15:01:26.049Z,27.40
2022-08-01T15:02:26.032Z,27.67
2022-08-01T15:03:26.034Z,27.75
2022-08-01T15:04:25.991Z,27.81
2022-08-01T15:05:25.977Z,27.63
2022-08-01T15:06:25.975Z,27.44
2022-08-01T15:07:25.973Z,27.44
2022-08-01T15:08:25.942Z,27.06
2022-08-01T15:09:25.941Z,27.03
2022-08-01T15:10:25.936Z,26.95
2022-08-01T15:16:03.438Z,26.70
2022-08-01T15:17:03.417Z,26.82
2022-08-01T15:18:03.420Z,26.87
2022-08-01T15:19:03.394Z,26.84
2022-08-01T15:20:03.388Z,26.69
2022-08-01T15:22:45.510Z,26.82
2022-08-01T15:23:45.452Z,26.87
2022-08-01T15:24:45.460Z,26.95
2022-08-01T15:25:45.420Z,27.13
2022-08-01T15:26:45.419Z,27.51
2022-08-01T15:27:45.410Z,27.43
2022-08-01T15:28:45.397Z,27.36
2022-08-01T15:29:45.379Z,27.17
2022-08-01T15:30:45.361Z,27.29
2022-08-01T15:31:45.360Z,27.29
2022-08-01T15:32:45.364Z,27.36
2022-08-01T15:33:45.340Z,27.39
2022-08-01T15:34:45.319Z,26.95
2022-08-01T15:35:45.305Z,26.75
2022-08-01T15:36:45.309Z,26.47
2022-08-01T15:37:45.297Z,26.57
2022-08-01T15:38:45.285Z,26.60
2022-08-01T15:39:45.274Z,26.55
2022-08-01T15:40:45.263Z,26.77
2022-08-01T15:41:45.241Z,27.02
2022-08-01T15:49:35.799Z,27.17
2022-08-01T15:50:35.744Z,27.28
2022-08-01T15:51:35.701Z,27.43
2022-08-01T15:52:35.706Z,27.78
2022-08-01T15:53:35.675Z,27.50
2022-08-01T15:54:35.673Z,27.85
2022-08-01T15:55:35.661Z,28.43
2022-08-01T15:56:35.641Z,28.06
2022-08-01T15:57:35.655Z,27.72
2022-08-01T15:58:35.618Z,27.66
2022-08-01T15:59:38.977Z,27.41
2022-08-01T16:00:39.050Z,27.31
2022-08-01T16:01:35.651Z,27.67
2022-08-01T16:02:35.588Z,27.36
2022-08-01T16:03:35.571Z,27.59
2022-08-01T16:04:35.560Z,27.66
2022-08-01T16:05:38.273Z,27.60
2022-08-01T16:06:35.533Z,27.46
2022-08-01T16:07:35.585Z,27.84
2022-08-01T16:08:35.509Z,28.64
2022-08-01T16:09:35.501Z,29.21
2022-08-01T16:10:35.500Z,30.08
2022-08-01T16:11:39.629Z,30.69
2022-08-01T16:12:35.486Z,30.42
2022-08-01T16:13:35.472Z,30.53
2022-08-01T16:14:35.454Z,30.57
2022-08-01T16:15:36.818Z,30.01
2022-08-01T16:16:35.435Z,29.36
2022-08-01T16:17:38.345Z,29.55
2022-08-01T16:18:35.425Z,28.85
2022-08-01T16:19:35.421Z,28.68
2022-08-01T16:20:35.406Z,28.62
2022-08-01T16:21:35.404Z,28.37
2022-08-01T16:22:35.401Z,28.22
2022-08-01T17:00:35.324Z,26.77
2022-08-01T17:03:17.457Z,27.29
2022-08-01T17:04:06.953Z,27.72
2022-08-01T17:05:08.463Z,28.22
2022-08-01T17:07:42.342Z,27.67
2022-08-01T17:08:46.734Z,27.85
2022-08-01T17:09:43.647Z,27.47
2022-08-01T17:10:42.296Z,27.78
2022-08-01T17:11:42.282Z,28.24
2022-08-01T17:12:42.284Z,28.41
2022-08-01T17:13:42.281Z,28.68
2022-08-01T17:17:16.342Z,27.41
